Time;durP1;ratioP1;P1;durP2;ratioP2;P2;SDS_P1;SDS_P2;PMS_P1;PMS_P2;Temp;Humidity;BMP_temperature;BMP_pressure;BME280_temperature;BME280_humidity;BME280_pressure;Samples;Min_cycle;Max_cycle;Signal;HPM_P1;HPM_P2
2020/12/29 00:01:41;;;;;;;11.93;7.63;;;5.70;91.40;;;;;;5096386;28;20028;-74
2020/12/29 00:04:09;;;;;;;12.98;7.35;;;5.80;91.40;;;;;;5096879;28;20024;-74
2020/12/29 00:06:42;;;;;;;12.33;7.57;;;5.80;91.40;;;;;;5095209;28;20032;-73
2020/12/29 00:09:08;;;;;;;12.50;7.93;;;5.70;91.40;;;;;;5094671;28;20027;-73
2020/12/29 00:11:33;;;;;;;12.13;8.10;;;5.70;91.40;;;;;;5094362;28;20061;-73
2020/12/29 00:13:59;;;;;;;12.13;7.53;;;5.70;91.40;;;;;;5078057;28;20506;-73
2020/12/29 00:16:24;;;;;;;13.00;8.47;;;5.70;91.40;;;;;;5094538;28;20039;-73
2020/12/29 00:18:51;;;;;;;14.67;9.20;;;5.80;91.40;;;;;;5094975;28;20062;-73
2020/12/29 00:21:20;;;;;;;15.40;8.90;;;5.70;91.40;;;;;;5078056;28;20035;-73
2020/12/29 00:23:46;;;;;;;14.67;8.70;;;5.70;91.40;;;;;;5094739;28;20032;-73
2020/12/29 00:26:13;;;;;;;13.17;7.70;;;5.70;91.40;;;;;;5078379;28;20031;-73
2020/12/29 00:28:39;;;;;;;13.80;8.20;;;5.70;91.40;;;;;;5094911;28;20035;-73
2020/12/29 00:31:04;;;;;;;14.03;8.73;;;5.70;91.40;;;;;;5094712;28;20028;-73
2020/12/29 00:33:30;;;;;;;18.50;9.40;;;5.70;91.40;;;;;;5065863;28;20029;-74
2020/12/29 00:35:56;;;;;;;13.90;8.93;;;5.70;91.40;;;;;;5069715;28;20032;-73
2020/12/29 00:38:21;;;;;;;14.87;9.13;;;5.70;91.40;;;;;;5057624;28;20056;-73
2020/12/29 00:40:47;;;;;;;14.57;8.60;;;5.60;91.40;;;;;;5075627;28;20033;-73
2020/12/29 00:43:12;;;;;;;13.67;8.83;;;5.60;91.50;;;;;;5075670;28;20391;-72
2020/12/29 00:45:38;;;;;;;14.00;8.23;;;5.60;91.60;;;;;;5074529;28;20082;-73
2020/12/29 00:48:04;;;;;;;12.73;8.63;;;5.60;91.60;;;;;;5058111;28;20017;-74
2020/12/29 00:50:29;;;;;;;12.47;7.83;;;5.60;91.60;;;;;;5052308;28;20093;-74
2020/12/29 00:52:55;;;;;;;11.07;7.17;;;5.60;91.60;;;;;;5090864;28;20503;-73
2020/12/29 00:55:20;;;;;;;12.20;8.40;;;5.60;91.60;;;;;;5074398;28;20055;-73
2020/12/29 00:57:46;;;;;;;12.50;8.03;;;5.70;91.60;;;;;;5090982;28;20040;-81
2020/12/29 01:00:12;;;;;;;11.87;7.87;;;5.70;91.70;;;;;;5075500;28;20036;-81
2020/12/29 01:02:37;;;;;;;12.57;7.73;;;5.70;91.70;;;;;;5057548;28;20029;-81
2020/12/29 01:05:03;;;;;;;13.20;8.07;;;5.70;91.70;;;;;;5090863;28;20033;-80
2020/12/29 01:07:29;;;;;;;15.97;8.00;;;5.70;91.70;;;;;;5056275;28;20028;-81
2020/12/29 01:09:54;;;;;;;12.20;7.53;;;5.60;91.70;;;;;;5075427;28;20464;-81
2020/12/29 01:12:20;;;;;;;12.20;7.07;;;5.70;91.80;;;;;;5073980;28;20024;-81
2020/12/29 01:14:45;;;;;;;12.37;8.03;;;5.70;91.80;;;;;;5074963;28;20040;-81
2020/12/29 01:17:14;;;;;;;14.17;8.47;;;5.70;91.70;;;;;;5074976;28;20032;-81
2020/12/29 01:19:40;;;;;;;12.37;7.20;;;5.70;91.80;;;;;;5074890;28;20028;-81
2020/12/29 01:22:05;;;;;;;11.90;7.80;;;5.70;91.80;;;;;;5094013;28;20429;-81
2020/12/29 01:24:31;;;;;;;12.10;7.67;;;5.70;91.70;;;;;;5092858;28;20024;-81
2020/12/29 01:26:57;;;;;;;13.83;7.70;;;5.70;92.00;;;;;;5093735;28;20032;-81
2020/12/29 01:29:23;;;;;;;10.90;7.63;;;5.70;91.70;;;;;;5093751;28;20047;-81
2020/12/29 01:31:49;;;;;;;12.43;7.00;;;5.70;91.70;;;;;;5093681;28;20472;-81
2020/12/29 01:34:14;;;;;;;10.57;6.77;;;5.70;91.70;;;;;;5090167;28;20029;-81
2020/12/29 01:36:40;;;;;;;12.60;7.30;;;5.70;91.80;;;;;;5073651;28;20149;-81
2020/12/29 01:39:06;;;;;;;12.00;7.03;;;5.70;91.80;;;;;;5073463;28;20399;-81
2020/12/29 01:41:35;;;;;;;12.93;6.83;;;5.70;91.80;;;;;;5074522;28;20074;-81
2020/12/29 01:44:19;;;;;;;11.60;6.93;;;5.70;91.80;;;;;;5074153;28;20071;-81
2020/12/29 01:46:53;;;;;;;11.40;6.82;;;5.80;91.80;;;;;;5074462;28;20426;-81
2020/12/29 01:49:19;;;;;;;11.32;6.97;;;5.70;91.70;;;;;;5074368;28;20028;-81
2020/12/29 01:51:45;;;;;;;12.20;6.60;;;5.80;91.70;;;;;;5087741;28;20043;-80
2020/12/29 01:54:10;;;;;;;12.70;7.27;;;5.80;91.70;;;;;;5092502;28;20384;-81
2020/12/29 01:56:41;;;;;;;11.47;7.37;;;5.80;91.70;;;;;;5094993;28;20024;-81
2020/12/29 01:59:11;;;;;;;10.30;6.70;;;5.70;91.70;;;;;;5094435;28;20032;-81
2020/12/29 02:01:40;;;;;;;11.67;7.17;;;5.70;91.60;;;;;;5093291;28;20024;-81
2020/12/29 02:04:07;;;;;;;10.47;7.10;;;5.70;91.70;;;;;;5094271;28;20119;-81
2020/12/29 02:06:37;;;;;;;11.63;7.40;;;5.70;91.70;;;;;;5092532;28;20476;-80
2020/12/29 02:09:04;;;;;;;12.53;8.03;;;5.70;91.60;;;;;;5093434;28;20480;-81
2020/12/29 02:11:30;;;;;;;12.63;7.50;;;5.70;91.70;;;;;;5094182;28;20020;-81
2020/12/29 02:13:56;;;;;;;11.27;7.83;;;5.70;91.60;;;;;;5092938;28;20082;-81
2020/12/29 02:16:22;;;;;;;11.63;6.83;;;5.70;91.60;;;;;;5093545;28;20025;-81
2020/12/29 02:18:48;;;;;;;11.07;7.10;;;5.70;91.60;;;;;;5094417;28;20111;-81
2020/12/29 02:21:13;;;;;;;12.70;8.27;;;5.70;91.70;;;;;;5075888;28;20066;-80
2020/12/29 02:23:39;;;;;;;10.73;7.37;;;5.70;91.60;;;;;;5088970;28;20032;-81
2020/12/29 02:26:05;;;;;;;9.77;6.87;;;5.70;91.70;;;;;;5074143;28;20086;-81
2020/12/29 02:28:31;;;;;;;12.57;7.87;;;5.70;91.70;;;;;;5073734;28;20048;-81
2020/12/29 02:30:56;;;;;;;10.63;7.33;;;5.60;91.60;;;;;;5072561;28;20039;-81
2020/12/29 02:33:22;;;;;;;13.60;7.90;;;5.70;91.60;;;;;;5073664;28;20024;-81
2020/12/29 02:35:47;;;;;;;11.37;8.07;;;5.70;91.60;;;;;;5055812;28;20025;-81
2020/12/29 02:38:13;;;;;;;12.00;7.60;;;5.60;91.60;;;;;;5072247;28;20434;-81
2020/12/29 02:40:39;;;;;;;12.00;7.80;;;5.60;91.60;;;;;;5081412;28;20102;-81
2020/12/29 02:43:04;;;;;;;11.93;7.43;;;5.60;91.60;;;;;;5075527;28;20032;-81
2020/12/29 02:45:31;;;;;;;12.27;7.30;;;5.50;91.70;;;;;;5090912;28;20101;-81
2020/12/29 02:47:56;;;;;;;13.10;7.90;;;5.60;91.70;;;;;;5092480;28;20433;-81
2020/12/29 02:50:22;;;;;;;10.70;7.43;;;5.60;91.70;;;;;;5092539;28;20028;-81
2020/12/29 02:52:47;;;;;;;11.23;7.40;;;5.60;91.70;;;;;;5075593;28;20016;-81
2020/12/29 02:55:13;;;;;;;13.53;7.63;;;5.50;91.70;;;;;;5093638;28;20032;-81
2020/12/29 02:57:38;;;;;;;12.50;8.30;;;5.50;91.60;;;;;;5090735;28;20057;-81
2020/12/29 03:00:05;;;;;;;12.23;8.30;;;5.50;91.70;;;;;;5092930;28;20020;-81
2020/12/29 03:02:31;;;;;;;13.50;8.57;;;5.50;91.70;;;;;;5092374;28;20483;-81
2020/12/29 03:05:01;;;;;;;12.97;8.50;;;5.60;91.70;;;;;;5092232;28;20170;-81
2020/12/29 03:07:27;;;;;;;11.40;7.43;;;5.60;91.70;;;;;;5093555;28;20031;-81
2020/12/29 03:09:52;;;;;;;14.63;8.97;;;5.50;91.70;;;;;;5093559;28;20028;-82
2020/12/29 03:12:18;;;;;;;12.83;8.93;;;5.60;91.70;;;;;;5092406;28;20039;-81
2020/12/29 03:14:43;;;;;;;12.93;8.63;;;5.60;91.80;;;;;;5090628;28;20028;-81
2020/12/29 03:17:09;;;;;;;12.80;8.60;;;5.60;91.80;;;;;;5071770;28;20035;-81
2020/12/29 03:19:35;;;;;;;13.93;8.77;;;5.60;91.70;;;;;;5071939;28;20423;-81
2020/12/29 03:22:01;;;;;;;12.37;7.70;;;5.60;91.80;;;;;;5073240;28;20045;-81
2020/12/29 03:24:26;;;;;;;12.30;8.30;;;5.60;91.80;;;;;;5073264;28;20033;-82
2020/12/29 03:26:52;;;;;;;15.93;9.73;;;5.60;91.80;;;;;;5055295;28;20020;-81
2020/12/29 03:29:18;;;;;;;14.70;9.30;;;5.60;91.70;;;;;;5090506;28;20055;-81
2020/12/29 03:31:44;;;;;;;13.57;9.30;;;5.60;91.70;;;;;;5093315;28;20036;-81
2020/12/29 03:34:26;;;;;;;14.67;9.47;;;5.50;91.70;;;;;;5091936;28;20016;-81
2020/12/29 03:36:51;;;;;;;13.63;9.53;;;5.60;91.70;;;;;;5092038;28;20020;-81
2020/12/29 03:39:17;;;;;;;14.17;9.50;;;5.50;91.70;;;;;;5079414;28;20770;-81
2020/12/29 03:41:43;;;;;;;14.57;10.03;;;5.50;91.70;;;;;;5072699;28;20376;-81
2020/12/29 03:44:09;;;;;;;12.87;9.20;;;5.50;91.70;;;;;;5071353;28;20056;-81
2020/12/29 03:46:34;;;;;;;12.20;8.77;;;5.50;91.70;;;;;;5072154;28;20511;-81
2020/12/29 03:49:00;;;;;;;13.83;9.37;;;5.50;91.70;;;;;;5075318;28;20017;-81
2020/12/29 03:51:26;;;;;;;13.57;9.43;;;5.60;91.70;;;;;;5075520;28;20038;-81
2020/12/29 03:53:51;;;;;;;13.83;8.90;;;5.50;91.70;;;;;;5075956;28;20039;-81
2020/12/29 03:56:17;;;;;;;15.37;10.20;;;5.50;91.70;;;;;;5058573;28;20411;-81
2020/12/29 03:58:42;;;;;;;13.57;9.23;;;5.40;91.70;;;;;;5082098;28;20036;-80
2020/12/29 04:01:08;;;;;;;13.10;8.50;;;5.40;91.80;;;;;;5096088;28;20098;-80
2020/12/29 04:03:34;;;;;;;12.60;8.87;;;5.40;91.80;;;;;;5078452;28;22281;-80
2020/12/29 04:05:59;;;;;;;14.33;8.60;;;5.40;91.80;;;;;;5096585;28;20036;-80
2020/12/29 04:08:25;;;;;;;14.53;9.43;;;5.30;91.80;;;;;;5096477;28;20024;-80
2020/12/29 04:10:50;;;;;;;13.27;8.77;;;5.30;91.90;;;;;;5096472;28;20099;-80
2020/12/29 04:13:16;;;;;;;17.10;9.33;;;5.40;91.90;;;;;;5096464;28;20032;-80
2020/12/29 04:15:42;;;;;;;14.30;8.93;;;5.30;91.90;;;;;;5093398;28;20118;-80
2020/12/29 04:18:07;;;;;;;13.40;9.20;;;5.30;91.90;;;;;;5094652;28;20032;-81
2020/12/29 04:20:33;;;;;;;13.43;8.87;;;5.30;91.90;;;;;;5078381;28;20081;-81
2020/12/29 04:22:59;;;;;;;13.67;9.13;;;5.30;91.90;;;;;;5095248;28;20499;-81
2020/12/29 04:25:24;;;;;;;12.90;9.50;;;5.30;91.90;;;;;;5078175;28;20437;-81
2020/12/29 04:27:50;;;;;;;12.60;8.93;;;5.30;91.90;;;;;;5096148;28;20024;-81
2020/12/29 04:30:15;;;;;;;13.03;9.17;;;5.30;91.90;;;;;;5094909;28;20035;-80
2020/12/29 04:32:41;;;;;;;13.37;9.10;;;5.30;91.90;;;;;;5081449;28;20159;-80
2020/12/29 04:35:08;;;;;;;12.87;9.03;;;5.30;91.90;;;;;;5074500;28;20423;-80
2020/12/29 04:37:34;;;;;;;12.37;8.47;;;5.30;92.20;;;;;;5075717;28;20032;-80
2020/12/29 04:40:00;;;;;;;11.33;8.37;;;5.20;91.90;;;;;;5075689;28;20033;-80
2020/12/29 04:42:27;;;;;;;13.17;8.93;;;5.30;91.90;;;;;;5075595;28;20392;-80
2020/12/29 04:44:52;;;;;;;14.63;9.40;;;5.20;91.90;;;;;;5086335;28;20044;-80
2020/12/29 04:47:18;;;;;;;13.73;9.27;;;5.30;91.90;;;;;;5095931;28;20533;-81
2020/12/29 04:49:45;;;;;;;13.07;8.93;;;5.30;91.90;;;;;;5094305;28;20036;-80
2020/12/29 04:52:11;;;;;;;12.50;9.40;;;5.20;91.90;;;;;;5095861;28;20024;-80
2020/12/29 04:54:39;;;;;;;12.37;8.73;;;5.20;92.00;;;;;;5095638;28;20496;-80
2020/12/29 04:57:06;;;;;;;14.10;9.47;;;5.20;92.00;;;;;;5095696;28;20024;-80
2020/12/29 04:59:33;;;;;;;14.33;9.00;;;5.20;92.00;;;;;;5076805;28;20048;-80
2020/12/29 05:02:00;;;;;;;13.27;9.03;;;5.20;92.10;;;;;;5089733;28;20463;-80
2020/12/29 05:04:25;;;;;;;15.50;10.10;;;5.20;92.10;;;;;;5095286;28;20131;-81
2020/12/29 05:06:52;;;;;;;15.80;10.07;;;5.20;92.00;;;;;;5095465;28;20107;-80
2020/12/29 05:09:21;;;;;;;16.23;10.30;;;5.20;92.10;;;;;;5094126;28;20435;-80
2020/12/29 05:11:47;;;;;;;14.67;9.33;;;5.20;92.10;;;;;;5094123;28;20028;-80
2020/12/29 05:14:13;;;;;;;15.77;10.07;;;5.20;92.00;;;;;;5093730;28;20074;-80
2020/12/29 05:16:42;;;;;;;19.87;11.60;;;5.20;92.10;;;;;;5085078;28;20037;-80
2020/12/29 05:19:15;;;;;;;15.17;10.87;;;5.20;92.10;;;;;;5075272;28;20029;-81
2020/12/29 05:21:42;;;;;;;17.07;11.40;;;5.20;92.10;;;;;;5074874;28;20024;-80
2020/12/29 05:24:12;;;;;;;18.07;12.13;;;5.10;92.20;;;;;;5056980;28;20033;-80
2020/12/29 05:26:39;;;;;;;18.97;11.50;;;5.10;92.30;;;;;;5057016;28;20032;-80
2020/12/29 05:29:06;;;;;;;19.67;11.63;;;5.10;92.30;;;;;;5073549;28;20029;-80
2020/12/29 05:31:34;;;;;;;16.17;11.47;;;5.10;92.30;;;;;;5084540;28;20066;-80
2020/12/29 05:34:00;;;;;;;17.70;12.10;;;5.10;92.30;;;;;;5091818;28;20028;-80
2020/12/29 05:36:27;;;;;;;21.10;12.73;;;5.10;92.40;;;;;;5093178;28;20016;-81
2020/12/29 05:39:07;;;;;;;19.17;12.07;;;5.10;92.40;;;;;;5094561;28;20036;-80
2020/12/29 05:41:42;;;;;;;19.43;12.40;;;5.10;92.70;;;;;;5094545;28;20016;-80
2020/12/29 05:44:09;;;;;;;17.90;11.37;;;5.10;92.50;;;;;;5094190;28;20131;-80
2020/12/29 05:46:35;;;;;;;16.73;11.50;;;5.10;92.50;;;;;;5093409;28;20483;-80
2020/12/29 05:49:01;;;;;;;17.07;11.40;;;5.10;92.50;;;;;;5093540;28;20104;-80
2020/12/29 05:51:27;;;;;;;19.97;12.80;;;5.10;92.50;;;;;;5076507;28;20032;-80
2020/12/29 05:54:01;;;;;;;20.63;12.07;;;5.20;92.50;;;;;;5094379;28;20058;-80
2020/12/29 05:56:28;;;;;;;;;;;5.20;92.60;;;;;;5095071;28;20024;-80
2020/12/29 05:58:55;;;;;;;17.93;11.40;;;5.20;92.60;;;;;;5095056;28;19904;-74
2020/12/29 06:01:20;;;;;;;19.37;12.43;;;5.20;92.60;;;;;;5093142;28;20032;-73
2020/12/29 06:03:50;;;;;;;20.10;13.10;;;5.20;92.60;;;;;;5091029;28;20095;-73
2020/12/29 06:06:16;;;;;;;19.90;13.37;;;5.20;92.60;;;;;;5094234;28;20031;-73
2020/12/29 06:08:42;;;;;;;21.70;14.30;;;5.20;92.60;;;;;;5092904;28;20480;-74
2020/12/29 06:11:21;;;;;;;22.53;14.27;;;5.20;92.60;;;;;;5092518;28;20020;-74
2020/12/29 06:13:47;;;;;;;22.80;14.33;;;5.20;92.70;;;;;;5092786;28;20024;-72
2020/12/29 06:16:17;;;;;;;21.13;13.63;;;5.20;92.70;;;;;;5075848;28;20051;-73
2020/12/29 06:18:54;;;;;;;23.40;15.37;;;5.20;92.70;;;;;;5093005;28;20051;-73
2020/12/29 06:21:23;;;;;;;23.20;16.17;;;5.20;92.70;;;;;;5090884;28;20059;-73
2020/12/29 06:23:48;;;;;;;24.13;15.33;;;5.20;92.70;;;;;;5075614;28;20032;-73
2020/12/29 06:26:19;;;;;;;23.77;16.00;;;5.20;92.70;;;;;;5074317;28;20409;-73
2020/12/29 06:28:50;;;;;;;28.60;17.23;;;5.20;92.80;;;;;;5072441;28;20491;-73
2020/12/29 06:31:27;;;;;;;27.03;16.40;;;5.20;92.80;;;;;;5071556;28;20541;-73
2020/12/29 06:33:55;;;;;;;27.20;17.53;;;5.20;92.80;;;;;;5073318;28;20060;-73
2020/12/29 06:36:21;;;;;;;26.63;16.33;;;5.20;92.80;;;;;;5054948;28;20448;-73
2020/12/29 06:38:49;;;;;;;28.53;17.93;;;5.10;92.80;;;;;;5092568;28;20468;-73
2020/12/29 06:41:20;;;;;;;29.67;18.33;;;5.10;92.90;;;;;;5093764;28;20027;-73
2020/12/29 06:43:49;;;;;;;29.70;18.73;;;5.10;92.90;;;;;;5093412;28;20048;-72
2020/12/29 06:46:16;;;;;;;33.67;20.47;;;5.20;93.00;;;;;;5093311;28;20048;-73
2020/12/29 06:48:42;;;;;;;28.80;17.90;;;5.10;92.90;;;;;;5075376;28;20020;-73
2020/12/29 06:51:12;;;;;;;32.13;20.03;;;5.10;93.00;;;;;;5093935;28;20053;-73
2020/12/29 06:53:42;;;;;;;33.60;22.17;;;5.20;93.10;;;;;;5085494;28;20044;-72
2020/12/29 06:56:16;;;;;;;33.47;20.67;;;5.10;93.10;;;;;;5073359;28;20021;-72
2020/12/29 06:58:42;;;;;;;27.10;16.35;;;5.10;93.10;;;;;;5071987;28;20154;-73
2020/12/29 07:01:33;;;;;;;32.97;20.40;;;5.10;93.20;;;;;;5071824;28;20495;-72
2020/12/29 07:04:06;;;;;;;33.27;19.90;;;5.10;93.10;;;;;;5073065;28;20025;-72
2020/12/29 07:06:34;;;;;;;26.02;16.67;;;5.10;93.50;;;;;;5073275;28;20602;-71
2020/12/29 07:09:15;;;;;;;28.03;17.27;;;5.00;93.20;;;;;;5073158;28;20039;-71
2020/12/29 07:12:09;;;;;;;26.87;15.90;;;5.00;93.20;;;;;;5072426;28;20457;-72
2020/12/29 07:14:35;;;;;;;23.73;14.60;;;4.90;93.20;;;;;;5055619;28;20067;-73
2020/12/29 07:17:05;;;;;;;20.60;12.50;;;4.90;93.10;;;;;;5072291;28;20488;-73
2020/12/29 07:19:31;;;;;;;19.17;11.00;;;4.90;93.00;;;;;;5073365;28;20032;-72
2020/12/29 07:21:57;;;;;;;19.23;11.10;;;4.90;92.90;;;;;;5074832;28;20032;-72
2020/12/29 07:24:27;;;;;;;18.67;10.70;;;4.90;92.80;;;;;;5075767;28;20032;-72
2020/12/29 07:26:56;;;;;;;19.63;11.10;;;4.80;92.90;;;;;;5076759;28;20054;-73
2020/12/29 07:29:22;;;;;;;17.67;10.53;;;4.80;92.80;;;;;;5076618;28;20040;-73
2020/12/29 07:31:48;;;;;;;21.17;11.23;;;4.80;92.80;;;;;;5075322;28;20086;-72
2020/12/29 07:34:14;;;;;;;20.90;11.90;;;4.80;92.90;;;;;;5075410;28;20028;-73
2020/12/29 07:36:46;;;;;;;21.90;12.27;;;4.80;92.90;;;;;;5076863;28;20028;-73
2020/12/29 07:39:17;;;;;;;21.20;11.57;;;4.80;92.90;;;;;;5058735;28;20035;-73
2020/12/29 07:41:43;;;;;;;22.60;11.80;;;4.80;92.90;;;;;;5075507;28;20027;-73
2020/12/29 07:44:09;;;;;;;20.40;12.40;;;4.80;92.90;;;;;;5076137;28;20127;-73
2020/12/29 07:46:35;;;;;;;22.73;11.93;;;4.80;92.90;;;;;;5076500;28;20036;-73
2020/12/29 07:49:03;;;;;;;28.13;14.20;;;4.80;92.90;;;;;;5058780;28;20028;-74
2020/12/29 07:51:28;;;;;;;26.63;13.87;;;4.80;92.90;;;;;;5059163;28;20021;-74
2020/12/29 07:53:54;;;;;;;29.53;14.43;;;4.80;92.90;;;;;;5083365;28;20421;-74
2020/12/29 07:56:20;;;;;;;25.37;13.67;;;4.80;92.90;;;;;;5075113;28;20077;-73
2020/12/29 07:58:46;;;;;;;27.80;14.57;;;4.80;92.90;;;;;;5051253;28;20074;-73
2020/12/29 08:01:12;;;;;;;26.10;13.77;;;4.80;92.80;;;;;;5085201;28;20422;-74
2020/12/29 08:03:38;;;;;;;26.53;14.23;;;4.80;92.80;;;;;;5086887;28;20123;-73
2020/12/29 08:06:13;;;;;;;26.43;14.57;;;4.80;92.80;;;;;;5078299;28;20052;-74
2020/12/29 08:08:41;;;;;;;29.53;15.60;;;4.70;92.70;;;;;;5080136;28;20025;-73
2020/12/29 08:11:08;;;;;;;28.73;15.33;;;4.70;92.80;;;;;;5088821;28;20074;-73
2020/12/29 08:13:34;;;;;;;34.67;17.17;;;4.70;92.70;;;;;;5084550;28;20027;-73
2020/12/29 08:15:59;;;;;;;38.33;20.90;;;4.70;92.80;;;;;;5083533;28;20024;-74
2020/12/29 08:18:25;;;;;;;38.37;19.70;;;4.80;92.80;;;;;;5068172;28;20475;-74
2020/12/29 08:20:55;;;;;;;38.30;20.53;;;4.60;92.70;;;;;;5078971;28;20066;-73
2020/12/29 08:23:22;;;;;;;37.13;20.03;;;4.60;92.80;;;;;;5082196;28;20162;-73
2020/12/29 08:25:49;;;;;;;37.80;20.40;;;4.60;92.90;;;;;;5059555;28;20111;-79
2020/12/29 08:28:16;;;;;;;37.57;20.33;;;4.60;93.20;;;;;;5089830;28;20032;-80
2020/12/29 08:30:42;;;;;;;32.13;18.00;;;4.50;92.80;;;;;;5094577;28;20031;-78
2020/12/29 08:33:08;;;;;;;36.17;18.93;;;4.50;92.80;;;;;;5088811;28;20020;-79
2020/12/29 08:35:42;;;;;;;31.60;17.73;;;4.50;92.70;;;;;;5076349;28;20032;-79
2020/12/29 08:38:18;;;;;;;32.33;16.73;;;4.40;92.80;;;;;;5082806;28;20027;-79
2020/12/29 08:41:06;;;;;;;31.30;17.23;;;4.50;92.90;;;;;;5081769;28;20032;-79
2020/12/29 08:43:40;;;;;;;30.80;17.67;;;4.40;92.90;;;;;;5099795;28;20082;-79
2020/12/29 08:46:07;;;;;;;32.20;17.70;;;4.40;93.00;;;;;;5088154;28;20074;-79
2020/12/29 08:48:33;;;;;;;30.23;15.63;;;4.40;93.00;;;;;;5083669;28;20107;-80
2020/12/29 08:51:16;;;;;;;31.07;16.83;;;4.40;93.00;;;;;;5063935;28;20134;-79
2020/12/29 08:53:42;;;;;;;32.47;17.57;;;4.30;93.00;;;;;;5078729;28;20078;-79
2020/12/29 08:56:24;;;;;;;32.10;17.23;;;4.40;93.00;;;;;;5076718;28;20024;-80
2020/12/29 08:58:50;;;;;;;33.80;17.83;;;4.40;93.00;;;;;;5089318;28;20025;-80
2020/12/29 09:01:38;;;;;;;34.60;18.67;;;4.40;93.00;;;;;;5074968;28;20377;-79
2020/12/29 09:04:26;;;;;;;32.47;18.20;;;4.40;93.00;;;;;;5076165;28;20031;-80
2020/12/29 09:06:59;;;;;;;35.07;17.97;;;4.40;93.10;;;;;;5084732;28;20021;-81
2020/12/29 09:09:26;;;;;;;33.05;18.05;;;4.40;93.10;;;;;;5080882;28;20028;-81
2020/12/29 09:12:13;;;;;;;33.87;17.63;;;4.40;93.20;;;;;;5081696;28;20545;-80
2020/12/29 09:15:15;;;;;;;33.40;18.47;;;4.40;93.20;;;;;;5096782;28;20028;-81
2020/12/29 09:17:42;;;;;;;36.13;18.93;;;4.40;93.10;;;;;;5087080;28;20032;-81
2020/12/29 09:20:21;;;;;;;38.73;21.13;;;4.50;93.20;;;;;;5093800;28;20475;-80
2020/12/29 09:22:53;;;;;;;38.53;22.17;;;4.50;93.30;;;;;;5091806;28;20066;-80
2020/12/29 09:25:28;;;;;;;37.80;20.83;;;4.50;93.10;;;;;;5086349;28;20099;-80
2020/12/29 09:28:20;;;;;;;41.70;22.40;;;4.50;93.20;;;;;;5086995;28;20028;-80
2020/12/29 09:31:09;;;;;;;39.53;21.07;;;4.50;93.20;;;;;;5097145;28;20044;-80
2020/12/29 09:33:37;;;;;;;39.10;22.33;;;4.40;93.10;;;;;;5081496;28;20077;-79
2020/12/29 09:36:04;;;;;;;38.43;21.50;;;4.40;93.10;;;;;;5083341;28;20100;-80
2020/12/29 09:38:31;;;;;;;38.00;21.27;;;4.40;93.20;;;;;;5084903;28;20025;-80
2020/12/29 09:40:56;;;;;;;35.00;19.27;;;4.40;93.30;;;;;;5081807;28;20024;-81
2020/12/29 09:43:22;;;;;;;35.63;19.90;;;4.40;93.40;;;;;;5075683;28;20029;-79
2020/12/29 09:45:50;;;;;;;35.57;19.87;;;4.40;93.50;;;;;;5071633;28;20511;-79
2020/12/29 09:48:17;;;;;;;33.50;18.70;;;4.40;93.50;;;;;;5076830;28;20142;-80
2020/12/29 09:50:45;;;;;;;39.17;21.10;;;4.30;93.50;;;;;;5080285;28;20494;-78
2020/12/29 09:53:11;;;;;;;33.87;18.73;;;4.30;93.50;;;;;;5080528;28;20024;-80
2020/12/29 09:55:40;;;;;;;30.77;18.17;;;4.30;93.50;;;;;;5074539;28;20020;-80
2020/12/29 09:58:06;;;;;;;31.37;16.87;;;4.40;93.60;;;;;;5078279;28;20032;-79
2020/12/29 10:00:32;;;;;;;31.93;18.67;;;4.40;93.60;;;;;;5082448;28;20024;-79
2020/12/29 10:02:58;;;;;;;31.37;17.60;;;4.40;93.70;;;;;;5079204;28;20107;-80
2020/12/29 10:05:25;;;;;;;31.03;18.10;;;4.50;93.80;;;;;;5080199;28;20541;-82
2020/12/29 10:07:50;;;;;;;28.10;15.67;;;4.50;93.80;;;;;;5081282;28;20032;-81
2020/12/29 10:10:17;;;;;;;28.40;16.30;;;4.60;93.80;;;;;;5090079;28;20029;-81
2020/12/29 10:12:43;;;;;;;28.67;16.20;;;4.60;93.70;;;;;;5093774;28;20472;-81
2020/12/29 10:15:09;;;;;;;30.37;16.63;;;4.70;93.70;;;;;;5082179;28;20048;-81
2020/12/29 10:17:35;;;;;;;27.00;15.40;;;4.70;93.60;;;;;;5072348;28;20494;-79
2020/12/29 10:20:01;;;;;;;27.67;16.17;;;4.80;93.60;;;;;;5085276;28;20039;-79
2020/12/29 10:22:27;;;;;;;28.80;16.77;;;4.80;93.60;;;;;;5075029;28;20028;-80
2020/12/29 10:24:53;;;;;;;31.03;17.30;;;4.90;93.60;;;;;;5090313;28;20068;-79
2020/12/29 10:27:18;;;;;;;28.47;17.53;;;4.90;93.50;;;;;;5090059;28;20153;-81
2020/12/29 10:29:44;;;;;;;28.07;16.57;;;4.80;93.50;;;;;;5083260;28;20021;-82
2020/12/29 10:32:10;;;;;;;29.03;16.60;;;4.90;93.50;;;;;;5075505;28;20024;-82
2020/12/29 10:34:35;;;;;;;29.63;16.90;;;4.90;93.50;;;;;;5073642;28;20032;-81
2020/12/29 10:37:01;;;;;;;31.07;17.57;;;4.90;93.50;;;;;;5069380;28;20496;-81
2020/12/29 10:39:26;;;;;;;33.47;18.20;;;4.90;93.50;;;;;;5083466;28;20089;-82
2020/12/29 10:41:52;;;;;;;34.17;19.63;;;4.90;93.50;;;;;;5081931;28;20036;-80
2020/12/29 10:44:18;;;;;;;33.50;18.67;;;4.90;93.50;;;;;;5060147;28;20405;-82
2020/12/29 10:46:47;;;;;;;34.77;20.17;;;4.80;93.50;;;;;;5080627;28;20103;-82
2020/12/29 10:49:14;;;;;;;31.83;18.80;;;4.90;93.60;;;;;;5090762;28;20054;-81
2020/12/29 10:51:39;;;;;;;30.73;17.67;;;4.90;93.50;;;;;;5083527;28;20037;-81
2020/12/29 10:54:05;;;;;;;36.53;19.90;;;4.90;93.50;;;;;;5076413;28;20058;-81
2020/12/29 10:56:31;;;;;;;36.40;20.37;;;4.90;93.50;;;;;;5086093;28;20426;-81
2020/12/29 10:58:57;;;;;;;35.17;19.47;;;4.90;93.50;;;;;;5084623;28;20043;-81
2020/12/29 11:01:23;;;;;;;32.90;19.17;;;5.00;93.50;;;;;;5071573;28;20029;-82
2020/12/29 11:03:50;;;;;;;31.27;17.73;;;5.00;93.50;;;;;;5090124;28;20130;-81
2020/12/29 11:06:35;;;;;;;30.67;16.87;;;5.00;93.50;;;;;;5083424;28;20028;-82
2020/12/29 11:09:01;;;;;;;30.70;17.70;;;5.10;93.90;;;;;;5080535;28;20074;-80
2020/12/29 11:11:27;;;;;;;29.93;16.60;;;5.10;93.50;;;;;;5074412;28;20505;-81
2020/12/29 11:13:52;;;;;;;30.00;16.93;;;5.10;93.50;;;;;;5081139;28;20036;-80
2020/12/29 11:16:21;;;;;;;25.63;15.67;;;5.20;93.50;;;;;;5093515;28;20032;-82
2020/12/29 11:18:48;;;;;;;28.80;15.77;;;5.20;93.40;;;;;;5084085;28;20031;-81
2020/12/29 11:21:15;;;;;;;24.43;14.20;;;5.20;93.40;;;;;;5075485;28;20056;-82
2020/12/29 11:23:41;;;;;;;24.20;14.40;;;5.30;93.50;;;;;;5086489;28;20046;-81
2020/12/29 11:26:07;;;;;;;24.50;14.80;;;5.30;93.50;;;;;;5086036;28;20009;-81
2020/12/29 11:28:33;;;;;;;25.37;14.80;;;5.30;93.50;;;;;;5071714;28;20016;-80
2020/12/29 11:30:59;;;;;;;24.23;14.57;;;5.40;93.50;;;;;;5074849;28;20090;-82
2020/12/29 11:33:25;;;;;;;25.77;14.23;;;5.40;93.50;;;;;;5086987;28;20101;-82
2020/12/29 11:35:50;;;;;;;23.13;14.10;;;5.50;93.80;;;;;;5076060;28;20029;-82
2020/12/29 11:38:18;;;;;;;26.47;15.13;;;5.50;93.50;;;;;;5071272;28;20075;-81
2020/12/29 11:40:44;;;;;;;24.60;15.57;;;5.60;93.60;;;;;;5072803;28;20024;-81
2020/12/29 11:43:10;;;;;;;24.37;14.83;;;5.60;93.60;;;;;;5071628;28;20020;-83
2020/12/29 11:45:36;;;;;;;25.73;15.40;;;5.60;93.50;;;;;;5080759;28;20049;-81
2020/12/29 11:48:02;;;;;;;25.20;14.93;;;5.70;93.70;;;;;;5080455;28;20074;-82
2020/12/29 11:50:28;;;;;;;25.50;14.90;;;5.80;93.70;;;;;;5088542;28;20471;-82
2020/12/29 11:52:53;;;;;;;28.60;16.87;;;5.80;93.50;;;;;;5069000;28;20035;-82
2020/12/29 11:55:19;;;;;;;29.80;17.23;;;5.70;93.40;;;;;;5085666;28;20033;-82
2020/12/29 11:57:45;;;;;;;31.93;18.33;;;5.80;93.20;;;;;;5077975;28;20035;-81
2020/12/29 12:00:11;;;;;;;31.60;18.10;;;5.80;93.20;;;;;;5081362;28;20024;-82
2020/12/29 12:02:36;;;;;;;35.00;20.07;;;5.90;93.20;;;;;;5077919;28;20033;-81
2020/12/29 12:05:02;;;;;;;36.83;20.93;;;5.80;93.10;;;;;;5080770;28;20090;-82
2020/12/29 12:07:28;;;;;;;35.80;21.17;;;5.80;93.20;;;;;;5083942;28;20024;-72
2020/12/29 12:09:53;;;;;;;42.67;24.40;;;5.90;93.20;;;;;;5085330;28;20471;-74
2020/12/29 12:12:19;;;;;;;42.83;26.00;;;5.90;93.10;;;;;;5085537;28;20050;-74
2020/12/29 12:14:45;;;;;;;47.27;27.03;;;6.00;93.10;;;;;;5086804;28;20036;-73
2020/12/29 12:17:10;;;;;;;46.37;28.23;;;5.90;92.90;;;;;;5083008;28;20075;-74
2020/12/29 12:19:36;;;;;;;47.47;27.80;;;6.00;92.80;;;;;;5087462;28;20032;-73
2020/12/29 12:22:02;;;;;;;45.90;28.80;;;5.90;92.90;;;;;;5079773;28;20081;-73
2020/12/29 12:24:28;;;;;;;44.40;26.87;;;6.00;92.60;;;;;;5080869;28;20040;-73
2020/12/29 12:26:54;;;;;;;49.93;28.67;;;6.00;92.50;;;;;;5087742;28;20020;-73
2020/12/29 12:29:19;;;;;;;48.50;29.33;;;6.00;92.40;;;;;;5080873;28;20097;-73
2020/12/29 12:31:45;;;;;;;41.17;26.53;;;6.00;92.40;;;;;;5077886;28;20020;-72
2020/12/29 12:34:11;;;;;;;46.37;28.00;;;6.00;92.50;;;;;;5084599;28;20056;-73
2020/12/29 12:36:37;;;;;;;48.33;28.07;;;6.00;92.50;;;;;;5083916;28;20115;-73
2020/12/29 12:39:03;;;;;;;45.33;27.50;;;5.90;92.50;;;;;;5088516;28;20460;-73
2020/12/29 12:41:29;;;;;;;40.37;25.20;;;5.90;92.50;;;;;;5086256;28;20614;-73
2020/12/29 12:43:55;;;;;;;40.60;24.87;;;5.90;92.50;;;;;;5075253;28;20128;-73